Latest Coastal Weather Observations for Ceduna

IDS60701

Issued at 2:51 pm CDT Thursday 14 December 2017 (issued every 10 minutes, with the page automatically refreshed every 10 minutes)

About coastal observations | Map of coastal stations | Coastal observations for SA | Marine services | Other Formats
Station Details ID: 018012 Name: CEDUNA AMO Lat: -32.13 Lon: 133.70 Height: 15.3 m
Data from the previous 72 hours. | See also: Recent months at Ceduna
Date/Time
CDT
Temp
°C
Wind Pressure Rain since
9am
mm
Weather Cloud Vis
km
Sea
Height
m
Swell
Dir  Spd
kts
Gust
kts
hPa Trend Height
m
Period
s
Dir
14/02:30pm 22.1 SSW 15 20 1014.3 - 0.0 - - 10 - - - -
14/02:00pm 22.0 S 12 17 1014.5 - 0.0 - - 10 - - - -
14/01:30pm 22.5 SSW 15 21 1014.7 - 0.0 - Partly cloudy 10 - - - -
14/01:00pm 21.8 SSW 14 20 1014.9 - 0.0 - Partly cloudy 10 - - - -
14/12:30pm 22.0 S 14 19 1014.9 - 0.0 - Partly cloudy 10 - - - -
14/12:00pm 21.7 S 14 19 1014.7 R 0.0 - Mostly clear 10 - - - -
14/11:30am 20.7 S 14 21 1014.6 - 0.0 - Partly cloudy 10 - - - -
14/11:00am 20.6 S 16 21 1014.4 - 0.0 - Partly cloudy 10 - - - -
14/10:30am 19.8 S 15 20 1014.3 - 0.0 - Cloudy 10 - - - -
14/10:00am 19.7 S 13 19 1014.4 - 0.0 - Cloudy 10 - - - -
14/09:30am 18.8 S 13 19 1014.1 - 0.0 - Partly cloudy 10 - - - -
14/09:00am 18.6 S 12 17 1014.0 R 0.0 - Cloudy 10 - - - -
14/08:30am 18.7 SSW 14 19 1013.7 - 0.0 - Partly cloudy 10 - - - -
14/08:00am 19.0 SSW 13 17 1013.4 - 0.0 - Cloudy 10 - - - -
14/07:30am 18.2 SSW 16 19 1012.9 - 0.0 - Partly cloudy 10 - - - -
14/07:00am 17.9 SW 16 20 1012.4 - 0.0 - Partly cloudy 10 - - - -
14/06:35am 17.5 SW 16 20 1012.1 - 0.0 - Partly cloudy 10 - - - -
14/06:30am 17.4 SW 16 20 1012.1 - 0.0 - Partly cloudy 10 - - - -
14/06:00am 17.1 SW 13 19 1012.0 R 0.0 - Cloudy 10 - - - -
14/05:31am 16.7 SSW 16 22 1011.7 - 0.0 - Partly cloudy 6 - - - -
14/05:30am 16.6 SSW 16 22 1011.7 - 0.0 - Partly cloudy 6 - - - -
14/05:00am 17.3 SW 15 19 1011.4 - 0.0 - Partly cloudy 5 - - - -
14/04:54am 17.4 SW 15 19 1011.4 - 0.0 - Partly cloudy 5 - - - -
14/04:51am 17.5 SW 15 19 1011.4 - 0.0 - Partly cloudy 7 - - - -
14/04:30am 17.9 SW 15 18 1011.1 - 0.0 - Partly cloudy 5 - - - -
14/04:29am 18.0 SW 15 18 1011.1 - 0.0 - Partly cloudy 5 - - - -
14/04:02am 19.0 SW 12 16 1011.0 - 0.0 - Partly cloudy 10 - - - -
14/04:00am 19.0 SW 12 16 1010.9 - 0.0 - Partly cloudy 10 - - - -
14/03:30am 19.3 SSW 11 14 1010.7 - 0.0 - Partly cloudy 10 - - - -
14/03:00am 19.3 SW 15 18 1010.6 R 0.0 - Cloudy 10 - - - -
14/02:42am 19.4 SSW 13 17 1010.3 - 0.0 - Partly cloudy 10 - - - -
14/02:30am 19.4 SSW 12 15 1010.4 - 0.0 - Partly cloudy 10 - - - -
14/02:04am 19.4 SSW 10 13 1010.8 - 0.0 - Partly cloudy 10 - - - -
14/02:00am 19.4 SSW 10 14 1010.8 - 0.0 - Partly cloudy 10 - - - -
14/01:41am 19.3 SSW 12 15 1010.7 - 0.0 - Partly cloudy 10 - - - -
14/01:30am 19.2 SSW 12 16 1010.7 - 0.0 - Partly cloudy 10 - - - -
14/01:00am 19.3 SSW 9 12 1011.0 - 0.0 - Cloudy 10 - - - -
14/12:59am 19.4 SSW 9 12 1011.0 - 0.0 - Cloudy 10 - - - -
14/12:30am 19.2 S 10 12 1011.1 - 0.0 - Partly cloudy 10 - - - -
14/12:13am 19.3 S 10 13 1011.3 - 0.0 - Cloudy 10 - - - -
14/12:00am 19.4 SSW 11 13 1011.4 R 0.0 - Cloudy 10 - - - -
 
Date/Time
CDT
Temp
°C
Wind Pressure Rain since
9am
mm
Weather Cloud Vis
km
Sea
Height
m
Swell
Dir  Spd
kts
Gust
kts
hPa Trend Height
m
Period
s
Dir
13/11:30pm 19.6 SSW 9 13 1011.5 - 0.0 - Partly cloudy 10 - - - -
13/11:00pm 19.5 SW 13 17 1010.9 - 0.0 - Partly cloudy 10 - - - -
13/10:30pm 19.6 SW 13 16 1010.8 - 0.0 - Cloudy 10 - - - -
13/10:00pm 19.6 SW 11 13 1010.5 - 0.0 - Cloudy 10 - - - -
13/09:30pm 19.9 SW 9 14 1010.5 - 0.0 - Partly cloudy 10 - - - -
13/09:00pm 20.0 SW 14 18 1010.1 R 0.0 - Mostly cloudy 10 - - - -
13/08:40pm 20.2 SW 14 18 1009.7 - 0.0 - Partly cloudy 10 - - - -
13/08:30pm 20.4 SW 14 17 1009.8 - 0.0 - Partly cloudy 10 - - - -
13/08:00pm 20.9 SW 16 20 1009.0 - 0.0 - - 10 - - - -
13/07:30pm 21.7 SW 18 23 1008.6 - 0.0 - - 10 - - - -
13/07:00pm 22.3 SW 19 23 1008.2 - 0.0 - - 10 - - - -
13/06:30pm 22.9 SW 19 23 1007.8 - 0.0 - - 10 - - - -
13/06:00pm 23.5 WSW 19 23 1007.8 R 0.0 - - 10 - - - -
13/05:30pm 24.6 WSW 19 24 1007.8 - 0.0 - - 10 - - - -
13/05:00pm 26.0 WSW 17 21 1007.8 - 0.0 - - 10 - - - -
13/04:30pm 27.3 WSW 16 21 1007.6 - 0.0 - - 10 - - - -
13/04:00pm 27.8 SW 15 21 1007.5 - 0.0 - - 10 - - - -
13/03:30pm 27.8 SW 14 18 1007.4 - 0.0 - - 10 - - - -
13/03:00pm 28.8 WSW 13 16 1007.6 R 0.0 - - 10 - - - -
13/02:30pm 28.4 WSW 11 17 1007.9 - 0.0 - - 10 - - - -
13/02:00pm 28.0 SW 10 14 1007.8 - 0.0 - - 10 - - - -
13/01:30pm 27.5 WSW 13 16 1008.0 - 0.0 - - 10 - - - -
13/01:00pm 26.7 WSW 10 13 1008.2 - 0.0 - - 10 - - - -
13/12:30pm 25.8 SW 11 13 1008.3 - 0.0 - - 10 - - - -
13/12:00pm 25.6 WSW 13 17 1008.4 R 0.0 - Mostly cloudy 10 - - - -
13/11:30am 25.5 SW 9 12 1007.8 - 0.0 - Partly cloudy 10 - - - -
13/11:00am 27.1 WNW 7 10 1007.7 - 0.0 - Partly cloudy 10 - - - -
13/10:30am 26.7 N 5 7 1007.0 - 0.0 - - 10 - - - -
13/10:00am 25.4 NE 9 12 1006.3 - 0.0 - - 10 - - - -
13/09:30am 24.4 NE 6 7 1006.8 - 0.0 - - 10 - - - -
13/09:00am 23.7 N 4 5 1007.4 R 0.0 - Cloudy 10 - - - -
13/08:30am 22.9 NNW 3 5 1007.5 - 0.0 - - 10 - - - -
13/08:00am 22.7 WNW 6 8 1007.6 - 0.0 - - 10 - - - -
13/07:30am 22.1 W 7 9 1007.5 - 0.0 - - 10 - - - -
13/07:00am 21.7 W 7 10 1007.2 - 0.0 - - 10 - - - -
13/06:30am 21.7 SSW 7 8 1005.9 - 0.0 - - 10 - - - -
13/06:00am 21.4 SW 10 13 1005.7 R 0.0 - Partly cloudy 10 - - - -
13/05:30am 22.0 WSW 11 15 1005.8 - 0.0 - - 10 - - - -
13/05:00am 22.6 W 13 20 1006.0 - 0.0 - - 10 - - - -
13/04:30am 23.1 SW 11 15 1004.2 - 0.0 - - 10 - - - -
13/04:00am 23.5 SSW 15 19 1003.9 - 0.0 - - 10 - - - -
13/03:30am 24.4 SW 15 21 1003.9 - 0.0 - - 10 - - - -
13/03:00am 28.1 WNW 13 19 1003.7 F 0.0 - Partly cloudy 10 - - - -
13/02:30am 30.0 NNE 10 12 1002.5 - 0.0 - - 10 - - - -
13/02:00am 29.9 NE 11 13 1002.7 - 0.0 - - 10 - - - -
13/01:30am 32.9 NNE 13 18 1003.0 - 0.0 - - 10 - - - -
13/01:00am 29.0 NNE 5 8 1003.8 - 0.0 - - 10 - - - -
13/12:30am 27.9 NNW 6 9 1004.4 - 0.0 - - 10 - - - -
13/12:00am 27.2 N 7 12 1005.0 F 0.0 - Cloudy 10 - - - -
 
Date/Time
CDT
Temp
°C
Wind Pressure Rain since
9am
mm
Weather Cloud Vis
km
Sea
Height
m
Swell
Dir  Spd
kts
Gust
kts
hPa Trend Height
m
Period
s
Dir
12/11:30pm 27.3 E 7 9 1004.8 - 0.0 - - 10 - - - -
12/11:00pm 29.8 ESE 10 13 1004.9 - 0.0 - - 10 - - - -
12/10:30pm 28.9 ESE 9 11 1005.1 - 0.0 - - 10 - - - -
12/10:00pm 29.7 SE 10 11 1004.9 - 0.0 - - 10 - - - -
12/09:30pm 28.6 SE 9 10 1005.1 - 0.0 - - 10 - - - -
12/09:00pm 30.5 SSE 7 9 1005.1 F 0.0 - - 10 - - - -
12/08:30pm 33.3 SSE 11 13 1004.8 - 0.0 - - 10 - - - -
12/08:00pm 35.4 SSE 10 14 1005.0 - 0.0 - - 10 - - - -
12/07:30pm 35.8 SSE 13 16 1005.2 - 0.0 - - 10 - - - -
12/07:00pm 34.4 SSE 12 17 1005.1 - 0.0 - - 10 - - - -
12/06:30pm 36.0 S 12 17 1005.2 - 0.0 - - 10 - - - -
12/06:00pm 38.4 S 13 17 1005.2 F 0.0 - - 10 - - - -
12/05:30pm 36.8 SSW 14 19 1005.5 - 0.0 - - 10 - - - -
12/05:00pm 40.7 NW 8 17 1005.8 - 0.0 - - 10 - - - -
12/04:30pm 40.1 N 10 20 1006.4 - 0.0 - - 10 - - - -
12/04:00pm 41.0 NNE 15 19 1006.8 - 0.0 - - 10 - - - -
12/03:30pm 40.9 NW 11 15 1007.3 - 0.0 - - 10 - - - -
12/03:00pm 40.2 NW 12 16 1007.8 F 0.0 - - 10 - - - -
12/02:30pm 40.7 NNW 8 15 1008.4 - 0.0 - - 10 - - - -
12/02:00pm 39.4 NNW 12 20 1009.0 - 0.0 - - 10 - - - -
12/01:30pm 40.0 N 11 19 1009.5 - 0.0 - - 10 - - - -
12/01:00pm 39.1 N 13 22 1009.9 - 0.0 - - 10 - - - -
12/12:30pm 39.1 N 15 28 1010.5 - 0.0 - - 10 - - - -
12/12:27pm 39.3 NNE 15 28 1010.5 - 0.0 - - 10 - - - -
12/12:00pm 38.3 NNE 15 23 1010.7 F 0.0 - - 10 - - - -
12/11:30am 38.6 N 17 23 1011.2 - 0.0 - - 10 - - - -
12/11:00am 37.0 N 18 23 1011.5 - 0.0 - - 10 - - - -
12/10:30am 36.1 NNE 19 24 1011.8 - 0.0 - - 10 - - - -
12/10:00am 34.4 NNE 20 25 1012.1 - 0.0 - - 10 - - - -
12/09:30am 33.3 NNE 17 23 1012.4 - 0.0 - - 10 - - - -
12/09:00am 31.6 NNE 16 20 1012.8 F 0.0 - - 10 - - - -
12/08:30am 29.2 NE 15 19 1012.5 - 0.0 - - 10 - - - -
12/08:00am 26.9 NE 13 17 1012.4 - 0.0 - - 10 - - - -
12/07:30am 24.9 NE 11 16 1012.4 - 0.0 - - 10 - - - -
12/07:00am 24.1 ENE 12 15 1012.1 - 0.0 - - 10 - - - -
12/06:30am 23.0 ENE 13 16 1012.0 - 0.0 - - 10 - - - -
12/06:00am 22.5 ENE 12 13 1011.8 F 0.0 - - 10 - - - -
12/05:30am 22.9 ENE 13 15 1011.7 - 0.0 - - 10 - - - -
12/05:00am 21.9 ENE 11 13 1011.6 - 0.0 - - 10 - - - -
12/04:30am 22.1 ENE 12 14 1011.6 - 0.0 - - 10 - - - -
12/04:00am 21.7 ENE 12 13 1011.6 - 0.0 - - 10 - - - -
12/03:30am 22.0 ENE 11 12 1011.6 - 0.0 - - 10 - - - -
12/03:00am 20.9 ENE 9 10 1011.9 F 0.0 - - 10 - - - -
12/02:30am 21.7 SE 1 7 1012.4 - 0.0 - - 10 - - - -
12/02:00am 21.6 SE 6 7 1012.7 - 0.0 - - 10 - - - -
12/01:30am 22.4 SE 5 8 1013.3 - 0.0 - - 10 - - - -
12/01:00am 23.2 SE 7 8 1013.7 - 0.0 - - 10 - - - -
12/12:30am 23.3 ESE 7 9 1014.0 - 0.0 - - 10 - - - -
12/12:00am 23.0 ESE 8 10 1014.3 F 0.0 - - 10 - - - -
 
Date/Time
CDT
Temp
°C
Wind Pressure Rain since
9am
mm
Weather Cloud Vis
km
Sea
Height
m
Swell
Dir  Spd
kts
Gust
kts
hPa Trend Height
m
Period
s
Dir
11/11:30pm 22.7 ESE 7 9 1014.6 - 0.0 - - 10 - - - -
11/11:00pm 23.3 ESE 9 10 1014.8 - 0.0 - - 10 - - - -
11/10:30pm 24.8 SE 11 13 1014.6 - 0.0 - - 10 - - - -
11/10:00pm 25.3 SE 12 15 1014.3 - 0.0 - - 10 - - - -
11/09:30pm 25.9 SE 11 15 1014.1 - 0.0 - - 10 - - - -
11/09:00pm 26.1 SE 12 16 1014.1 F 0.0 - - 10 - - - -
11/08:30pm 27.1 SE 15 20 1014.0 - 0.0 - - 10 - - - -
11/08:00pm 28.7 SSE 16 21 1014.0 - 0.0 - - 10 - - - -
11/07:30pm 28.9 SSE 15 22 1013.9 - 0.0 - - 10 - - - -
11/07:00pm 29.0 SSE 18 23 1013.8 - 0.0 - - 10 - - - -
11/06:30pm 29.5 SSE 18 23 1013.6 - 0.0 - - 10 - - - -
11/06:00pm 29.1 SSE 19 23 1013.5 F 0.0 - - 10 - - - -
11/05:30pm 29.6 S 17 21 1013.7 - 0.0 - - 10 - - - -
11/05:00pm 30.7 S 17 21 1013.8 - 0.0 - - 10 - - - -
11/04:30pm 31.9 S 16 19 1014.1 - 0.0 - - 10 - - - -
11/04:00pm 31.9 S 15 18 1014.3 - 0.0 - - 10 - - - -
11/03:30pm 31.8 S 15 18 1014.6 - 0.0 - - 10 - - - -
11/03:00pm 32.2 S 13 16 1015.0 F 0.0 - - 10 - - - -

Other Formats:

Comma delimited format used in spreadsheet applications
http://www.bom.gov.au/fwo/IDS60701/IDS60701.94653.axf

JavaScript Object Notation format (JSON) in row-major order
http://www.bom.gov.au/fwo/IDS60701/IDS60701.94653.json